Time;durP1;ratioP1;P1;durP2;ratioP2;P2;SDS_P1;SDS_P2;PMS_P1;PMS_P2;Temp;Humidity;BMP_temperature;BMP_pressure;BME280_temperature;BME280_humidity;BME280_pressure;Samples;Min_cycle;Max_cycle;Signal;HPM_P1;HPM_P2
2023/09/25 00:01:36;;;;;;;407.00;173.87;;;;;;;;;;5033443;28;20222;-65
2023/09/25 00:04:02;;;;;;;420.70;171.87;;;;;;;;;;5032807;28;20259;-65
2023/09/25 00:06:29;;;;;;;432.63;185.90;;;;;;;;;;5029876;28;20176;-65
2023/09/25 00:08:55;;;;;;;436.00;179.20;;;;;;;;;;5017133;28;22048;-65
2023/09/25 00:11:21;;;;;;;431.97;186.30;;;;;;;;;;5034574;28;20227;-65
2023/09/25 00:13:47;;;;;;;402.03;169.47;;;;;;;;;;5032094;28;20621;-65
2023/09/25 00:16:14;;;;;;;381.17;158.10;;;;;;;;;;5032497;28;20223;-65
2023/09/25 00:18:40;;;;;;;423.00;180.43;;;;;;;;;;5029690;28;21128;-65
2023/09/25 00:21:06;;;;;;;437.60;195.40;;;;;;;;;;5017443;28;20697;-65
2023/09/25 00:23:32;;;;;;;463.73;192.63;;;;;;;;;;5030991;28;20304;-65
2023/09/25 00:26:04;;;;;;;442.00;182.30;;;;;;;;;;5043872;28;20224;-65
2023/09/25 00:28:31;;;;;;;465.07;196.17;;;;;;;;;;5055291;28;20301;-65
2023/09/25 00:30:57;;;;;;;417.97;171.57;;;;;;;;;;5055907;28;20183;-65
2023/09/25 00:33:23;;;;;;;407.43;165.57;;;;;;;;;;5055812;28;20675;-65
2023/09/25 00:35:48;;;;;;;441.33;183.57;;;;;;;;;;5054525;28;20794;-65
2023/09/25 00:38:14;;;;;;;399.90;164.13;;;;;;;;;;5039769;28;20204;-65
2023/09/25 00:40:40;;;;;;;497.70;209.17;;;;;;;;;;5030640;28;20527;-65
2023/09/25 00:43:06;;;;;;;433.93;177.27;;;;;;;;;;5033410;28;20440;-65
2023/09/25 00:45:36;;;;;;;442.90;184.73;;;;;;;;;;5045198;28;20184;-65
2023/09/25 00:48:03;;;;;;;416.43;169.77;;;;;;;;;;5029515;28;20250;-66
2023/09/25 00:50:30;;;;;;;437.17;182.03;;;;;;;;;;5026015;28;20220;-66
2023/09/25 00:52:57;;;;;;;407.30;168.83;;;;;;;;;;5027913;28;20347;-65
2023/09/25 00:55:22;;;;;;;396.17;166.03;;;;;;;;;;5030659;28;20938;-66
2023/09/25 00:57:49;;;;;;;426.27;182.37;;;;;;;;;;5030546;28;20213;-65
2023/09/25 01:00:15;;;;;;;453.53;184.43;;;;;;;;;;5032115;28;20270;-66
2023/09/25 01:02:42;;;;;;;440.63;182.37;;;;;;;;;;5031661;28;20314;-65
2023/09/25 01:05:08;;;;;;;429.80;180.47;;;;;;;;;;5040388;28;20252;-66
2023/09/25 01:07:35;;;;;;;411.57;171.97;;;;;;;;;;5029795;28;20212;-65
2023/09/25 01:10:09;;;;;;;420.23;175.83;;;;;;;;;;5033519;28;20792;-65
2023/09/25 01:12:37;;;;;;;423.60;177.53;;;;;;;;;;5028461;28;20253;-66
2023/09/25 01:15:03;;;;;;;402.70;167.20;;;;;;;;;;5033103;28;20207;-65
2023/09/25 01:17:29;;;;;;;430.40;176.40;;;;;;;;;;5032857;28;20208;-66
2023/09/25 01:19:55;;;;;;;431.33;180.67;;;;;;;;;;5032001;28;20253;-66
2023/09/25 01:22:21;;;;;;;424.70;173.57;;;;;;;;;;5032595;28;20208;-66
2023/09/25 01:24:47;;;;;;;418.50;177.17;;;;;;;;;;5037132;28;20267;-64
2023/09/25 01:27:13;;;;;;;394.13;156.67;;;;;;;;;;5038236;28;20267;-65
2023/09/25 01:29:39;;;;;;;405.40;168.57;;;;;;;;;;5039154;28;20265;-66
2023/09/25 01:32:05;;;;;;;392.93;171.23;;;;;;;;;;5024079;28;20230;-65
2023/09/25 01:34:31;;;;;;;376.57;166.93;;;;;;;;;;5040167;28;20222;-65
2023/09/25 01:36:57;;;;;;;438.13;181.43;;;;;;;;;;5034320;28;20234;-65
2023/09/25 01:39:24;;;;;;;434.43;178.43;;;;;;;;;;5037158;28;20217;-65
2023/09/25 01:41:50;;;;;;;446.73;191.07;;;;;;;;;;5018911;28;20259;-66
2023/09/25 01:44:16;;;;;;;422.93;172.17;;;;;;;;;;5036471;28;20693;-66
2023/09/25 01:46:42;;;;;;;471.73;200.70;;;;;;;;;;5020221;28;20207;-65
2023/09/25 01:49:08;;;;;;;394.40;163.80;;;;;;;;;;5024995;28;20232;-65
2023/09/25 01:51:34;;;;;;;400.43;168.17;;;;;;;;;;5036736;28;20199;-65
2023/09/25 01:54:00;;;;;;;427.37;177.07;;;;;;;;;;5039978;28;20220;-65
2023/09/25 01:56:26;;;;;;;424.20;170.83;;;;;;;;;;5037087;28;20309;-66
2023/09/25 01:58:52;;;;;;;456.53;188.80;;;;;;;;;;5035808;28;20883;-65
2023/09/25 02:01:18;;;;;;;452.27;193.83;;;;;;;;;;5034032;28;20203;-65
2023/09/25 02:03:44;;;;;;;442.07;192.17;;;;;;;;;;5033339;28;20188;-65
2023/09/25 02:06:10;;;;;;;392.50;166.27;;;;;;;;;;5039414;28;20207;-65
2023/09/25 02:08:36;;;;;;;423.07;175.77;;;;;;;;;;5036506;28;20311;-65
2023/09/25 02:11:02;;;;;;;407.27;170.07;;;;;;;;;;5035574;28;20227;-66
2023/09/25 02:13:28;;;;;;;441.07;180.00;;;;;;;;;;5038335;28;20720;-66
2023/09/25 02:15:54;;;;;;;453.10;187.43;;;;;;;;;;5034600;28;20203;-65
2023/09/25 02:18:20;;;;;;;415.67;172.10;;;;;;;;;;5037540;28;20211;-66
2023/09/25 02:20:47;;;;;;;420.77;176.67;;;;;;;;;;5022966;28;20218;-66
2023/09/25 02:23:13;;;;;;;418.30;168.60;;;;;;;;;;5039311;28;20214;-65
2023/09/25 02:25:39;;;;;;;422.80;180.50;;;;;;;;;;5034956;28;21055;-65
2023/09/25 02:28:05;;;;;;;407.93;167.47;;;;;;;;;;5020984;28;20333;-65
2023/09/25 02:30:31;;;;;;;402.53;166.03;;;;;;;;;;5021785;28;21651;-65
2023/09/25 02:32:57;;;;;;;444.50;197.57;;;;;;;;;;5046609;22;20345;-48
2023/09/25 02:35:23;;;;;;;428.47;189.10;;;;;;;;;;5044839;28;20678;-48
2023/09/25 02:37:49;;;;;;;454.60;208.60;;;;;;;;;;5041614;28;20223;-47
2023/09/25 02:40:15;;;;;;;451.77;203.30;;;;;;;;;;5032064;28;20267;-48
2023/09/25 02:42:42;;;;;;;452.70;206.83;;;;;;;;;;5026922;28;20191;-48
2023/09/25 02:45:08;;;;;;;433.13;196.90;;;;;;;;;;5021019;28;20242;-48
2023/09/25 02:47:34;;;;;;;423.77;190.33;;;;;;;;;;5021538;28;20353;-48
2023/09/25 02:50:01;;;;;;;457.20;207.13;;;;;;;;;;5011485;28;20232;-48
2023/09/25 02:52:26;;;;;;;506.57;234.13;;;;;;;;;;5019967;28;20219;-48
2023/09/25 02:54:52;;;;;;;444.93;203.50;;;;;;;;;;5024254;28;20213;-48
2023/09/25 02:57:18;;;;;;;437.57;194.33;;;;;;;;;;5022585;28;20650;-49
2023/09/25 02:59:44;;;;;;;467.17;213.83;;;;;;;;;;5028112;28;20620;-48
2023/09/25 03:02:10;;;;;;;429.60;192.20;;;;;;;;;;5029208;28;20243;-48
2023/09/25 03:04:37;;;;;;;424.67;189.27;;;;;;;;;;5024459;28;20946;-48
2023/09/25 03:07:03;;;;;;;444.07;199.93;;;;;;;;;;5026081;28;20196;-48
2023/09/25 03:09:29;;;;;;;433.47;193.03;;;;;;;;;;5023555;28;20299;-48
2023/09/25 03:11:55;;;;;;;490.37;230.03;;;;;;;;;;5019516;28;20219;-48
2023/09/25 03:14:21;;;;;;;439.53;195.23;;;;;;;;;;5032401;28;20231;-48
2023/09/25 03:16:48;;;;;;;448.17;210.23;;;;;;;;;;5022134;28;20228;-48
2023/09/25 03:19:14;;;;;;;407.10;182.93;;;;;;;;;;5028137;28;20247;-48
2023/09/25 03:21:41;;;;;;;411.53;198.97;;;;;;;;;;5019408;28;20188;-48
2023/09/25 03:24:07;;;;;;;400.70;189.17;;;;;;;;;;5017931;28;20219;-48
2023/09/25 03:26:33;;;;;;;392.13;177.90;;;;;;;;;;5022613;28;20329;-48
2023/09/25 03:28:59;;;;;;;448.17;202.60;;;;;;;;;;5023992;28;20253;-48
2023/09/25 03:31:25;;;;;;;427.83;195.67;;;;;;;;;;5022665;28;20219;-48
2023/09/25 03:33:51;;;;;;;460.63;220.47;;;;;;;;;;5021558;28;20708;-48
2023/09/25 03:36:17;;;;;;;431.40;196.67;;;;;;;;;;5026908;28;20216;-48
2023/09/25 03:38:43;;;;;;;417.57;197.83;;;;;;;;;;5030559;28;20207;-48
2023/09/25 03:41:09;;;;;;;422.23;200.60;;;;;;;;;;5030787;28;20234;-48
2023/09/25 03:43:35;;;;;;;411.50;193.43;;;;;;;;;;5024654;28;20222;-48
2023/09/25 03:46:02;;;;;;;426.13;199.97;;;;;;;;;;5033453;28;20427;-48
2023/09/25 03:48:28;;;;;;;435.53;203.77;;;;;;;;;;5033304;28;20234;-48
2023/09/25 03:50:54;;;;;;;429.97;206.17;;;;;;;;;;5026274;28;20469;-48
2023/09/25 03:53:20;;;;;;;411.40;190.77;;;;;;;;;;5022198;28;20681;-50
2023/09/25 03:55:46;;;;;;;475.23;231.80;;;;;;;;;;5021386;28;20224;-48
2023/09/25 03:58:12;;;;;;;430.13;207.27;;;;;;;;;;5023699;28;20219;-48
2023/09/25 04:00:39;;;;;;;398.73;182.47;;;;;;;;;;5025445;28;20176;-47
2023/09/25 04:03:05;;;;;;;387.67;178.30;;;;;;;;;;5027625;28;20211;-50
2023/09/25 04:05:33;;;;;;;416.93;188.20;;;;;;;;;;5026557;28;20212;-51
2023/09/25 04:07:58;;;;;;;447.73;210.13;;;;;;;;;;5022513;28;20265;-51
2023/09/25 04:10:26;;;;;;;434.53;204.53;;;;;;;;;;5021034;28;20228;-52
2023/09/25 04:12:53;;;;;;;371.17;156.47;;;;;;;;;;5052848;22;20231;-51
2023/09/25 04:15:22;;;;;;;361.67;153.63;;;;;;;;;;5046323;28;20645;-50
2023/09/25 04:17:50;;;;;;;348.60;147.57;;;;;;;;;;5046454;28;20440;-51
2023/09/25 04:20:17;;;;;;;364.53;153.13;;;;;;;;;;5066334;28;20206;-51
2023/09/25 04:22:44;;;;;;;358.47;148.77;;;;;;;;;;5066348;28;20293;-51
2023/09/25 04:25:18;;;;;;;364.20;153.60;;;;;;;;;;5066059;28;20271;-51
2023/09/25 04:27:44;;;;;;;375.30;157.53;;;;;;;;;;5067192;28;20201;-51
2023/09/25 04:30:14;;;;;;;367.97;153.93;;;;;;;;;;5070368;28;20256;-51
2023/09/25 04:32:40;;;;;;;351.23;147.17;;;;;;;;;;5070241;28;20218;-51
2023/09/25 04:35:07;;;;;;;355.27;150.70;;;;;;;;;;5070186;28;20290;-51
2023/09/25 04:37:33;;;;;;;355.07;150.73;;;;;;;;;;5070577;28;20210;-51
2023/09/25 04:40:00;;;;;;;356.03;153.03;;;;;;;;;;5070785;28;20194;-51
2023/09/25 04:42:25;;;;;;;348.90;149.93;;;;;;;;;;5071059;28;20171;-51
2023/09/25 04:44:51;;;;;;;362.73;155.03;;;;;;;;;;5070236;28;20653;-51
2023/09/25 04:47:17;;;;;;;357.17;149.03;;;;;;;;;;5070149;28;20764;-51
2023/09/25 04:49:43;;;;;;;352.33;148.37;;;;;;;;;;5070122;28;20573;-51
2023/09/25 04:52:09;;;;;;;368.10;151.03;;;;;;;;;;5069872;28;20207;-51
2023/09/25 04:54:37;;;;;;;350.80;146.93;;;;;;;;;;5070549;28;20172;-52
2023/09/25 04:57:03;;;;;;;358.93;150.00;;;;;;;;;;5069693;28;20248;-51
2023/09/25 04:59:29;;;;;;;354.43;142.83;;;;;;;;;;5069560;28;20219;-51
2023/09/25 05:01:54;;;;;;;364.73;152.43;;;;;;;;;;5069406;28;20275;-51
2023/09/25 05:04:21;;;;;;;368.27;151.80;;;;;;;;;;5069586;28;20236;-52
2023/09/25 05:06:47;;;;;;;355.97;150.70;;;;;;;;;;5069506;28;20193;-52
2023/09/25 05:09:13;;;;;;;356.23;148.83;;;;;;;;;;5069771;28;20513;-50
2023/09/25 05:11:39;;;;;;;366.07;157.77;;;;;;;;;;5069171;28;20283;-51
2023/09/25 05:14:05;;;;;;;354.37;153.77;;;;;;;;;;5069287;28;20309;-50
2023/09/25 05:16:31;;;;;;;355.93;147.20;;;;;;;;;;5063242;28;20677;-51
2023/09/25 05:18:58;;;;;;;371.33;160.37;;;;;;;;;;5049512;28;20199;-50
2023/09/25 05:21:24;;;;;;;378.57;161.43;;;;;;;;;;5048696;28;20202;-50
2023/09/25 05:23:50;;;;;;;367.40;153.10;;;;;;;;;;5048715;28;20223;-51
2023/09/25 05:26:16;;;;;;;368.77;154.83;;;;;;;;;;5049335;28;20295;-51
2023/09/25 05:28:42;;;;;;;360.03;150.90;;;;;;;;;;5048949;28;20700;-50
2023/09/25 05:31:08;;;;;;;350.67;145.53;;;;;;;;;;5049295;28;20219;-51
2023/09/25 05:33:34;;;;;;;370.97;154.47;;;;;;;;;;5049723;28;20175;-51
2023/09/25 05:36:00;;;;;;;352.63;146.70;;;;;;;;;;5049691;28;20226;-51
2023/09/25 05:38:26;;;;;;;362.90;150.33;;;;;;;;;;5063822;28;20226;-50
2023/09/25 05:40:52;;;;;;;364.83;151.43;;;;;;;;;;5069796;28;20215;-50
2023/09/25 05:43:19;;;;;;;357.30;148.67;;;;;;;;;;5065203;28;20218;-50
2023/09/25 05:45:45;;;;;;;364.97;153.47;;;;;;;;;;5050461;28;20280;-51
2023/09/25 05:48:11;;;;;;;356.60;148.67;;;;;;;;;;5049949;28;20223;-50
2023/09/25 05:50:37;;;;;;;367.83;151.07;;;;;;;;;;5049996;28;20579;-50
2023/09/25 05:53:04;;;;;;;354.93;147.73;;;;;;;;;;5049465;28;20231;-50
2023/09/25 05:55:30;;;;;;;360.73;149.63;;;;;;;;;;5049765;28;20647;-50
2023/09/25 05:57:56;;;;;;;355.57;145.67;;;;;;;;;;5050980;28;20254;-50
2023/09/25 06:00:22;;;;;;;365.03;150.43;;;;;;;;;;5070225;28;20163;-50
2023/09/25 06:02:48;;;;;;;380.23;161.63;;;;;;;;;;5068788;28;20210;-50
2023/09/25 06:05:15;;;;;;;382.10;156.90;;;;;;;;;;5068972;28;20286;-50
2023/09/25 06:07:42;;;;;;;375.43;152.63;;;;;;;;;;5069471;28;20243;-50
2023/09/25 06:10:08;;;;;;;372.97;149.37;;;;;;;;;;5069332;28;20225;-50
2023/09/25 06:12:35;;;;;;;378.50;159.63;;;;;;;;;;5069042;28;20245;-50
2023/09/25 06:15:05;;;;;;;360.83;151.43;;;;;;;;;;5069170;28;20586;-52
2023/09/25 06:17:31;;;;;;;359.93;146.97;;;;;;;;;;5069249;28;20207;-51
2023/09/25 06:19:57;;;;;;;357.23;144.70;;;;;;;;;;5068918;28;20331;-51
2023/09/25 06:22:23;;;;;;;371.13;160.83;;;;;;;;;;5068175;28;20323;-51
2023/09/25 06:24:49;;;;;;;368.93;152.63;;;;;;;;;;5053136;28;20175;-51
2023/09/25 06:27:15;;;;;;;363.00;149.33;;;;;;;;;;5054720;28;20197;-51
2023/09/25 06:29:43;;;;;;;360.67;151.83;;;;;;;;;;5069095;28;20219;-51
2023/09/25 06:32:09;;;;;;;350.13;150.77;;;;;;;;;;5069949;28;20301;-51
2023/09/25 06:34:35;;;;;;;413.80;172.07;;;;;;;;;;5049779;28;20218;-54
2023/09/25 06:37:01;;;;;;;436.23;183.17;;;;;;;;;;5039114;28;20628;-54
2023/09/25 06:39:27;;;;;;;420.30;178.13;;;;;;;;;;5043702;28;20218;-53
2023/09/25 06:41:53;;;;;;;430.97;185.47;;;;;;;;;;5035606;28;20417;-53
2023/09/25 06:44:19;;;;;;;351.63;145.30;;;;;;;;;;5042715;28;20681;-51
2023/09/25 06:46:46;;;;;;;351.53;147.27;;;;;;;;;;5070016;28;20689;-51
2023/09/25 06:49:11;;;;;;;359.73;149.23;;;;;;;;;;5068644;28;20635;-51
2023/09/25 06:51:38;;;;;;;361.50;151.70;;;;;;;;;;5068828;28;20281;-51
2023/09/25 06:54:04;;;;;;;358.33;151.13;;;;;;;;;;5068963;28;20275;-51
2023/09/25 06:56:30;;;;;;;362.27;152.07;;;;;;;;;;5068927;28;20369;-51
2023/09/25 06:58:56;;;;;;;369.10;152.47;;;;;;;;;;5068746;28;20241;-51
2023/09/25 07:01:23;;;;;;;363.53;155.00;;;;;;;;;;5068185;28;20218;-51
2023/09/25 07:03:49;;;;;;;369.13;153.57;;;;;;;;;;5068721;28;20179;-52
2023/09/25 07:06:15;;;;;;;367.77;152.73;;;;;;;;;;5068961;28;20179;-51
2023/09/25 07:08:41;;;;;;;371.97;155.07;;;;;;;;;;5068505;28;20244;-50
2023/09/25 07:11:08;;;;;;;377.87;161.20;;;;;;;;;;5068328;28;20244;-51
2023/09/25 07:13:34;;;;;;;359.80;150.33;;;;;;;;;;5067660;28;20226;-51
2023/09/25 07:16:03;;;;;;;378.03;164.83;;;;;;;;;;5076274;28;20198;-51
2023/09/25 07:18:29;;;;;;;364.07;154.57;;;;;;;;;;5068935;28;20205;-51
2023/09/25 07:20:55;;;;;;;377.23;160.37;;;;;;;;;;5066733;28;20210;-51
2023/09/25 07:23:22;;;;;;;360.87;152.90;;;;;;;;;;5067923;28;20210;-51
2023/09/25 07:25:48;;;;;;;373.83;161.73;;;;;;;;;;5068176;28;20233;-51
2023/09/25 07:28:14;;;;;;;404.37;173.60;;;;;;;;;;5065366;28;20313;-51
2023/09/25 07:30:44;;;;;;;374.77;164.70;;;;;;;;;;5068486;28;20279;-51
2023/09/25 07:33:12;;;;;;;372.30;156.77;;;;;;;;;;5057453;28;20546;-51
2023/09/25 07:35:38;;;;;;;381.70;160.13;;;;;;;;;;5067998;28;20223;-51
2023/09/25 07:38:04;;;;;;;369.87;164.13;;;;;;;;;;5068158;28;20257;-51
2023/09/25 07:40:30;;;;;;;374.87;162.83;;;;;;;;;;5072682;28;20280;-51
2023/09/25 07:42:57;;;;;;;365.40;158.37;;;;;;;;;;5071081;28;20186;-51
2023/09/25 07:45:25;;;;;;;374.23;159.83;;;;;;;;;;5084124;28;20266;-51
2023/09/25 07:47:52;;;;;;;379.33;159.90;;;;;;;;;;5067661;28;20321;-51
2023/09/25 07:50:19;;;;;;;384.03;162.30;;;;;;;;;;5067726;28;20215;-51
2023/09/25 07:52:46;;;;;;;390.90;165.83;;;;;;;;;;5067443;28;20214;-51
2023/09/25 07:55:12;;;;;;;385.17;165.87;;;;;;;;;;5067360;28;20598;-51
2023/09/25 07:57:44;;;;;;;390.77;171.80;;;;;;;;;;5067124;28;20319;-51
2023/09/25 08:02:47;;;;;;;392.47;167.83;;;;;;;;;;5067315;28;20297;-51
2023/09/25 08:05:14;;;;;;;384.57;167.63;;;;;;;;;;5066035;28;20353;-51
2023/09/25 08:07:40;;;;;;;377.63;163.50;;;;;;;;;;5065593;28;20237;-51
2023/09/25 08:10:07;;;;;;;368.87;155.13;;;;;;;;;;5067426;28;20194;-51
2023/09/25 08:12:33;;;;;;;377.30;157.80;;;;;;;;;;5066461;28;20193;-51
2023/09/25 08:14:59;;;;;;;377.33;165.13;;;;;;;;;;5067558;28;20225;-51
2023/09/25 08:17:25;;;;;;;395.00;169.53;;;;;;;;;;5067325;28;20606;-51
2023/09/25 08:19:52;;;;;;;386.27;167.03;;;;;;;;;;5067347;28;20242;-51
2023/09/25 08:22:18;;;;;;;379.07;166.83;;;;;;;;;;5066584;28;20564;-51
2023/09/25 08:24:44;;;;;;;377.90;162.13;;;;;;;;;;5066239;28;20262;-51
2023/09/25 08:27:10;;;;;;;383.90;169.53;;;;;;;;;;5067423;28;20306;-51
2023/09/25 08:29:36;;;;;;;395.57;174.43;;;;;;;;;;5067117;28;20222;-51
2023/09/25 08:32:02;;;;;;;382.63;166.70;;;;;;;;;;5067349;28;20218;-51
2023/09/25 08:34:28;;;;;;;387.97;169.73;;;;;;;;;;5067350;28;20213;-51
2023/09/25 08:36:54;;;;;;;395.30;173.33;;;;;;;;;;5067095;28;20203;-50
2023/09/25 08:39:20;;;;;;;395.80;172.40;;;;;;;;;;5068003;28;20206;-51
2023/09/25 08:41:46;;;;;;;392.33;171.63;;;;;;;;;;5067378;28;20693;-51
2023/09/25 08:44:15;;;;;;;388.60;169.67;;;;;;;;;;5067314;28;20253;-51
2023/09/25 08:46:41;;;;;;;390.07;168.90;;;;;;;;;;5067357;28;20211;-51
2023/09/25 08:49:08;;;;;;;390.43;171.60;;;;;;;;;;5067064;28;20222;-51
2023/09/25 08:51:39;;;;;;;409.97;184.10;;;;;;;;;;5067420;28;20262;-51
2023/09/25 08:54:05;;;;;;;405.37;177.57;;;;;;;;;;5067169;28;20301;-51
2023/09/25 08:56:32;;;;;;;392.60;170.27;;;;;;;;;;5067167;28;20269;-51
2023/09/25 08:59:00;;;;;;;396.87;175.53;;;;;;;;;;5066754;28;20305;-51
2023/09/25 09:01:27;;;;;;;413.20;180.70;;;;;;;;;;5085756;28;20261;-51
2023/09/25 09:03:53;;;;;;;410.13;182.47;;;;;;;;;;5072535;28;20203;-51
2023/09/25 09:06:19;;;;;;;392.40;172.90;;;;;;;;;;5061460;28;20183;-51
2023/09/25 09:08:47;;;;;;;418.07;189.97;;;;;;;;;;5066857;28;20223;-51
2023/09/25 09:11:13;;;;;;;393.77;177.77;;;;;;;;;;5066973;28;20215;-51
2023/09/25 09:13:49;;;;;;;387.37;168.53;;;;;;;;;;5068433;28;20619;-51
2023/09/25 09:16:16;;;;;;;401.90;178.73;;;;;;;;;;5070790;28;20240;-51
2023/09/25 09:18:42;;;;;;;409.57;185.47;;;;;;;;;;5071630;28;20234;-52
2023/09/25 09:21:26;;;;;;;401.30;184.23;;;;;;;;;;5070732;28;20242;-52
2023/09/25 09:23:57;;;;;;;412.53;189.77;;;;;;;;;;5070139;28;20780;-52
2023/09/25 09:26:23;;;;;;;395.07;183.00;;;;;;;;;;5070261;28;20215;-52
2023/09/25 09:28:50;;;;;;;400.03;182.53;;;;;;;;;;5070617;28;20227;-52
2023/09/25 09:31:18;;;;;;;400.33;183.67;;;;;;;;;;5070927;28;20219;-52
2023/09/25 09:33:44;;;;;;;389.97;181.07;;;;;;;;;;5071598;28;20178;-52
2023/09/25 09:36:12;;;;;;;393.53;192.50;;;;;;;;;;5070170;28;20279;-52
2023/09/25 09:38:39;;;;;;;390.47;187.80;;;;;;;;;;5070239;28;20332;-52
2023/09/25 09:41:06;;;;;;;401.07;192.10;;;;;;;;;;5069388;28;20242;-52
2023/09/25 09:43:32;;;;;;;411.03;194.17;;;;;;;;;;5068707;28;20297;-52
2023/09/25 09:45:58;;;;;;;418.23;200.40;;;;;;;;;;5068378;28;20194;-52
2023/09/25 09:48:25;;;;;;;387.53;188.77;;;;;;;;;;5069074;28;20199;-52
2023/09/25 09:50:52;;;;;;;392.10;189.90;;;;;;;;;;5068525;28;20226;-52
2023/09/25 09:53:18;;;;;;;406.27;195.47;;;;;;;;;;5069088;28;20582;-52
2023/09/25 09:55:45;;;;;;;415.27;199.37;;;;;;;;;;5068661;28;20227;-52
2023/09/25 09:58:12;;;;;;;429.30;209.60;;;;;;;;;;5068128;28;20222;-52
2023/09/25 10:00:41;;;;;;;422.87;209.73;;;;;;;;;;5068805;28;20575;-52
2023/09/25 10:03:08;;;;;;;410.67;202.43;;;;;;;;;;5068581;28;20217;-52
2023/09/25 10:06:04;;;;;;;422.67;208.40;;;;;;;;;;5067281;28;20239;-52
2023/09/25 10:08:31;;;;;;;403.20;204.43;;;;;;;;;;5063614;28;20596;-52
2023/09/25 10:11:14;;;;;;;390.13;200.37;;;;;;;;;;5068353;28;20215;-52
2023/09/25 10:13:40;;;;;;;469.47;239.33;;;;;;;;;;5067224;22;20657;-79
2023/09/25 10:16:06;;;;;;;454.30;231.53;;;;;;;;;;5051714;28;20199;-70
2023/09/25 10:18:32;;;;;;;510.80;259.43;;;;;;;;;;5051345;28;20186;-70
2023/09/25 10:21:13;;;;;;;480.00;241.43;;;;;;;;;;5044888;28;20336;-70
2023/09/25 10:23:40;;;;;;;455.00;233.50;;;;;;;;;;5045608;28;20210;-70
2023/09/25 10:26:15;;;;;;;425.00;219.63;;;;;;;;;;5057172;28;20302;-69
2023/09/25 10:28:41;;;;;;;463.67;230.47;;;;;;;;;;5054935;28;20704;-69
2023/09/25 10:31:19;;;;;;;424.67;214.37;;;;;;;;;;5054592;28;20294;-70
2023/09/25 10:33:54;;;;;;;459.50;238.13;;;;;;;;;;5055202;28;20211;-70
2023/09/25 10:36:20;;;;;;;492.00;256.43;;;;;;;;;;5051443;28;20828;-69
2023/09/25 10:38:51;;;;;;;474.67;247.80;;;;;;;;;;5055373;28;20538;-70
2023/09/25 10:41:17;;;;;;;487.93;262.00;;;;;;;;;;5052271;28;20428;-70
2023/09/25 10:43:43;;;;;;;457.57;241.23;;;;;;;;;;5055949;28;20206;-69
2023/09/25 10:46:09;;;;;;;437.73;237.20;;;;;;;;;;5056545;28;20273;-70
2023/09/25 10:48:35;;;;;;;450.40;234.83;;;;;;;;;;5060474;28;21372;-70
2023/09/25 10:51:01;;;;;;;463.40;247.37;;;;;;;;;;5050599;28;20472;-70
2023/09/25 10:53:27;;;;;;;460.33;249.13;;;;;;;;;;5056336;28;20587;-69
2023/09/25 10:55:54;;;;;;;502.90;277.07;;;;;;;;;;5046102;28;20252;-70
2023/09/25 10:58:21;;;;;;;538.47;290.83;;;;;;;;;;5032018;28;20700;-70
2023/09/25 11:00:49;;;;;;;470.83;257.87;;;;;;;;;;5045813;28;20206;-70
2023/09/25 11:03:15;;;;;;;445.17;238.93;;;;;;;;;;5045367;28;20244;-70
2023/09/25 11:05:41;;;;;;;536.20;297.20;;;;;;;;;;5045052;28;20223;-71
2023/09/25 11:08:18;;;;;;;449.63;249.70;;;;;;;;;;5052335;28;20523;-71
2023/09/25 11:10:45;;;;;;;520.63;285.03;;;;;;;;;;5050698;28;20222;-70
2023/09/25 11:13:12;;;;;;;463.63;249.20;;;;;;;;;;5050997;28;20937;-69
2023/09/25 11:15:39;;;;;;;479.03;269.30;;;;;;;;;;5052673;28;20210;-70
2023/09/25 11:18:07;;;;;;;492.43;270.40;;;;;;;;;;5051827;28;20638;-70
2023/09/25 11:20:34;;;;;;;483.67;276.20;;;;;;;;;;5054722;28;20220;-70
2023/09/25 11:23:10;;;;;;;446.57;251.70;;;;;;;;;;5055737;28;20215;-71
2023/09/25 11:25:41;;;;;;;524.70;301.73;;;;;;;;;;5052841;28;20249;-70
2023/09/25 11:28:07;;;;;;;485.07;266.20;;;;;;;;;;5056349;28;20218;-71
2023/09/25 11:30:34;;;;;;;479.63;264.07;;;;;;;;;;5056795;28;20684;-70
2023/09/25 11:33:07;;;;;;;482.30;267.10;;;;;;;;;;5053387;28;20221;-70
2023/09/25 11:35:37;;;;;;;495.80;282.93;;;;;;;;;;5056691;28;20276;-70
2023/09/25 11:38:03;;;;;;;459.57;261.97;;;;;;;;;;5060511;28;20632;-69
2023/09/25 11:40:30;;;;;;;465.40;270.70;;;;;;;;;;5057421;28;20215;-70
2023/09/25 11:42:56;;;;;;;492.93;281.77;;;;;;;;;;5050967;28;20182;-69
2023/09/25 11:45:23;;;;;;;444.30;264.50;;;;;;;;;;5049827;28;20668;-70
2023/09/25 11:47:49;;;;;;;480.50;270.70;;;;;;;;;;5054573;28;20245;-70
2023/09/25 11:50:16;;;;;;;504.30;286.97;;;;;;;;;;5058201;28;20222;-70
2023/09/25 11:52:42;;;;;;;487.53;278.30;;;;;;;;;;5054875;28;20354;-70
2023/09/25 11:55:11;;;;;;;477.83;292.73;;;;;;;;;;5057093;28;20248;-71
2023/09/25 11:57:41;;;;;;;512.13;301.67;;;;;;;;;;5053581;28;20388;-70
2023/09/25 12:00:07;;;;;;;460.30;275.67;;;;;;;;;;5054225;28;20211;-70
2023/09/25 12:02:34;;;;;;;484.07;295.60;;;;;;;;;;5053397;28;20257;-70
2023/09/25 12:04:59;;;;;;;484.60;292.57;;;;;;;;;;5046819;28;20211;-70
2023/09/25 12:07:30;;;;;;;505.67;302.33;;;;;;;;;;5048433;28;20453;-69
2023/09/25 12:09:56;;;;;;;511.67;309.03;;;;;;;;;;5050114;28;20256;-70
2023/09/25 12:12:23;;;;;;;492.13;297.43;;;;;;;;;;5054904;28;20190;-70
2023/09/25 12:14:51;;;;;;;485.93;293.97;;;;;;;;;;5053746;28;20842;-71
2023/09/25 12:17:18;;;;;;;458.63;289.97;;;;;;;;;;5051605;28;20611;-70
2023/09/25 12:19:45;;;;;;;492.43;304.20;;;;;;;;;;5051308;28;20613;-70
2023/09/25 12:22:11;;;;;;;487.10;298.90;;;;;;;;;;5053424;28;20299;-73
2023/09/25 12:24:38;;;;;;;516.70;316.07;;;;;;;;;;5055693;28;20195;-70
2023/09/25 12:27:04;;;;;;;505.07;303.87;;;;;;;;;;5055450;28;20241;-70
2023/09/25 12:29:30;;;;;;;568.63;340.40;;;;;;;;;;5051714;28;20263;-70
2023/09/25 12:31:56;;;;;;;514.97;325.17;;;;;;;;;;5054336;28;20323;-69
2023/09/25 12:34:22;;;;;;;512.47;314.07;;;;;;;;;;5053924;28;20929;-70
2023/09/25 12:36:48;;;;;;;500.53;315.33;;;;;;;;;;5050393;28;20199;-70
2023/09/25 12:39:14;;;;;;;488.37;308.90;;;;;;;;;;5054037;28;20197;-70
2023/09/25 12:41:41;;;;;;;488.57;300.13;;;;;;;;;;5052250;28;20222;-71
2023/09/25 12:44:07;;;;;;;488.23;299.33;;;;;;;;;;5049379;28;20218;-70
2023/09/25 12:46:33;;;;;;;502.83;305.13;;;;;;;;;;5051818;28;20333;-70
2023/09/25 12:48:59;;;;;;;511.83;315.73;;;;;;;;;;5051329;28;20193;-70
2023/09/25 12:51:26;;;;;;;536.50;325.73;;;;;;;;;;5046104;28;20196;-69
2023/09/25 12:53:52;;;;;;;469.67;295.57;;;;;;;;;;5057084;28;20218;-70
2023/09/25 12:56:18;;;;;;;482.13;299.03;;;;;;;;;;5045675;28;20437;-70
2023/09/25 12:58:43;;;;;;;499.37;314.33;;;;;;;;;;5057870;28;20207;-70
2023/09/25 13:01:09;;;;;;;502.70;301.83;;;;;;;;;;5054542;28;20570;-70
2023/09/25 13:03:35;;;;;;;530.50;318.07;;;;;;;;;;5059750;28;20190;-70
2023/09/25 13:06:03;;;;;;;522.87;310.73;;;;;;;;;;5057173;28;20214;-70
2023/09/25 13:08:29;;;;;;;519.20;306.63;;;;;;;;;;5045689;28;20402;-70
2023/09/25 13:10:55;;;;;;;506.40;304.33;;;;;;;;;;5053913;28;20207;-73
2023/09/25 13:13:21;;;;;;;475.07;287.40;;;;;;;;;;5055326;28;20595;-70
2023/09/25 13:15:47;;;;;;;520.33;305.90;;;;;;;;;;5054290;28;20506;-69
2023/09/25 13:18:13;;;;;;;456.90;277.13;;;;;;;;;;5056123;28;20264;-70
2023/09/25 13:20:39;;;;;;;530.47;310.37;;;;;;;;;;5054915;28;20215;-70
2023/09/25 13:23:05;;;;;;;496.63;292.80;;;;;;;;;;5053809;28;20848;-70
2023/09/25 13:25:31;;;;;;;536.93;318.57;;;;;;;;;;5055040;28;20215;-71
2023/09/25 13:27:56;;;;;;;505.73;296.73;;;;;;;;;;5055398;28;20190;-70
2023/09/25 13:30:22;;;;;;;503.70;293.77;;;;;;;;;;5053393;28;20584;-70
2023/09/25 13:32:49;;;;;;;494.10;293.57;;;;;;;;;;5057551;28;20363;-70
2023/09/25 13:35:16;;;;;;;486.07;283.63;;;;;;;;;;5057680;28;20242;-69
2023/09/25 13:37:43;;;;;;;475.33;282.40;;;;;;;;;;5062372;28;20277;-70
2023/09/25 13:40:10;;;;;;;472.67;285.10;;;;;;;;;;5060015;28;20277;-70
2023/09/25 13:42:36;;;;;;;519.40;301.10;;;;;;;;;;5059794;28;20230;-70
2023/09/25 13:45:02;;;;;;;501.60;291.80;;;;;;;;;;5055315;28;20254;-70
2023/09/25 13:47:28;;;;;;;482.60;284.73;;;;;;;;;;5057344;28;20203;-70
2023/09/25 13:49:54;;;;;;;486.40;287.97;;;;;;;;;;5058904;28;20266;-70
2023/09/25 13:52:20;;;;;;;471.60;275.90;;;;;;;;;;5059476;28;20219;-69